createdAt,value
2019-05-19T00:02:11.219Z,9.70
2019-05-19T00:04:39.679Z,9.43
2019-05-19T00:07:08.139Z,9.57
2019-05-19T00:09:36.982Z,9.47
2019-05-19T00:12:05.765Z,9.90
2019-05-19T00:14:34.226Z,10.17
2019-05-19T00:17:02.673Z,10.23
2019-05-19T00:19:31.134Z,10.20
2019-05-19T00:21:59.568Z,9.50
2019-05-19T00:24:28.031Z,9.63
2019-05-19T00:26:56.491Z,9.93
2019-05-19T00:29:25.000Z,9.80
2019-05-19T00:31:53.428Z,9.47
2019-05-19T00:34:21.939Z,10.90
2019-05-19T00:36:50.399Z,10.70
2019-05-19T00:39:18.839Z,9.70
2019-05-19T00:41:47.296Z,10.37
2019-05-19T00:44:15.764Z,10.90
2019-05-19T00:46:44.219Z,11.03
2019-05-19T00:49:12.726Z,11.20
2019-05-19T00:51:41.446Z,9.80
2019-05-19T00:54:10.186Z,10.30
2019-05-19T00:56:38.768Z,10.47
2019-05-19T00:59:08.638Z,11.60
2019-05-19T01:01:37.103Z,10.67
2019-05-19T01:04:05.542Z,10.87
2019-05-19T01:06:34.003Z,10.23
2019-05-19T01:09:02.911Z,10.23
2019-05-19T01:11:31.386Z,10.80
2019-05-19T01:13:59.915Z,10.20
2019-05-19T01:16:28.403Z,10.30
2019-05-19T01:18:56.839Z,10.67
2019-05-19T01:21:25.718Z,11.13
2019-05-19T01:23:54.159Z,10.17
2019-05-19T01:26:22.691Z,10.20
2019-05-19T01:28:51.122Z,10.87
2019-05-19T01:31:19.607Z,11.17
2019-05-19T01:33:48.057Z,10.90
2019-05-19T01:36:16.569Z,10.70
2019-05-19T01:38:45.011Z,10.57
2019-05-19T01:41:13.454Z,10.80
2019-05-19T01:43:41.923Z,10.03
2019-05-19T01:46:10.651Z,10.97
2019-05-19T01:48:39.084Z,10.57
2019-05-19T01:51:07.542Z,10.50
2019-05-19T01:53:35.979Z,10.57
2019-05-19T01:56:05.592Z,9.70
2019-05-19T01:58:34.210Z,9.77
2019-05-19T02:01:02.805Z,10.37
2019-05-19T02:03:31.334Z,10.20
2019-05-19T02:05:59.771Z,10.57
2019-05-19T02:08:28.234Z,11.10
2019-05-19T02:10:57.003Z,10.57
2019-05-19T02:13:25.506Z,10.80
2019-05-19T02:15:53.973Z,10.20
2019-05-19T02:18:22.788Z,10.77
2019-05-19T02:20:51.209Z,10.93
2019-05-19T02:23:19.774Z,10.17
2019-05-19T02:25:48.273Z,10.20
2019-05-19T02:28:16.722Z,10.17
2019-05-19T02:30:45.169Z,9.70
2019-05-19T02:33:13.629Z,10.10
2019-05-19T02:35:42.064Z,10.47
2019-05-19T02:38:10.526Z,10.60
2019-05-19T02:40:40.772Z,10.80
2019-05-19T02:43:10.650Z,11.37
2019-05-19T02:45:40.136Z,10.63
2019-05-19T02:48:09.935Z,11.00
2019-05-19T02:50:51.473Z,10.87
2019-05-19T02:53:11.059Z,10.93
2019-05-19T02:55:40.912Z,11.50
2019-05-19T02:58:12.077Z,14.63
2019-05-19T03:00:42.320Z,13.37
2019-05-19T03:03:10.979Z,13.30
2019-05-19T03:05:39.424Z,12.90
2019-05-19T03:08:07.888Z,13.87
2019-05-19T03:10:36.333Z,12.77
2019-05-19T03:13:04.924Z,12.70
2019-05-19T03:15:33.507Z,12.30
2019-05-19T03:18:02.049Z,12.13
2019-05-19T03:20:30.503Z,11.73
2019-05-19T03:22:58.958Z,13.03
2019-05-19T03:25:27.402Z,12.97
2019-05-19T03:27:55.931Z,12.90
2019-05-19T03:30:42.827Z,12.67
2019-05-19T03:33:12.987Z,12.27
2019-05-19T03:35:41.805Z,11.97
2019-05-19T03:38:10.278Z,14.03
2019-05-19T03:40:38.735Z,13.67
2019-05-19T03:43:07.268Z,15.20
2019-05-19T03:45:35.769Z,16.20
2019-05-19T03:48:04.418Z,16.30
2019-05-19T03:50:32.928Z,15.53
2019-05-19T03:53:01.408Z,13.87
2019-05-19T03:55:29.986Z,13.27
2019-05-19T03:57:58.424Z,13.13
2019-05-19T04:00:26.977Z,13.33
2019-05-19T04:02:55.413Z,16.03
2019-05-19T04:05:23.893Z,15.17
2019-05-19T04:07:52.388Z,15.67
2019-05-19T04:10:21.010Z,15.20
2019-05-19T04:12:49.447Z,14.57
2019-05-19T04:15:18.336Z,14.73
2019-05-19T04:17:46.852Z,15.37
2019-05-19T04:20:15.891Z,14.50
2019-05-19T04:22:44.349Z,14.97
2019-05-19T04:25:13.043Z,14.77
2019-05-19T04:27:41.487Z,14.33
2019-05-19T04:30:10.283Z,14.40
2019-05-19T04:32:38.741Z,15.03
2019-05-19T04:35:07.360Z,17.53
2019-05-19T04:37:35.804Z,19.63
2019-05-19T04:40:05.900Z,17.57
2019-05-19T04:42:34.345Z,17.40
2019-05-19T04:45:02.801Z,17.20
2019-05-19T04:47:31.250Z,19.00
2019-05-19T04:49:59.712Z,18.60
2019-05-19T04:52:28.144Z,17.50
2019-05-19T04:54:56.603Z,18.30
2019-05-19T04:57:25.084Z,19.67
2019-05-19T04:59:53.551Z,19.47
2019-05-19T05:02:21.988Z,21.83
2019-05-19T05:04:50.473Z,21.90
2019-05-19T05:07:18.973Z,22.90
2019-05-19T05:09:47.443Z,23.77
2019-05-19T05:12:15.881Z,23.03
2019-05-19T05:14:44.335Z,23.03
2019-05-19T05:17:12.939Z,22.70
2019-05-19T05:19:41.442Z,22.57
2019-05-19T05:22:21.198Z,22.83
2019-05-19T05:24:40.095Z,23.83
2019-05-19T05:27:08.633Z,23.57
2019-05-19T05:29:37.162Z,22.60
2019-05-19T05:32:05.610Z,21.30
2019-05-19T05:34:34.088Z,20.43
2019-05-19T05:37:02.540Z,23.00
2019-05-19T05:39:30.987Z,23.97
2019-05-19T05:41:59.456Z,23.53
2019-05-19T05:44:27.953Z,24.00
2019-05-19T05:46:56.488Z,23.47
2019-05-19T05:49:25.272Z,26.00
2019-05-19T05:51:53.771Z,28.53
2019-05-19T05:54:22.203Z,25.50
2019-05-19T05:56:50.658Z,23.37
2019-05-19T05:59:19.103Z,24.67
2019-05-19T06:01:47.569Z,24.57
2019-05-19T06:04:16.381Z,24.80
2019-05-19T06:06:45.852Z,24.70
2019-05-19T06:09:14.426Z,27.87
2019-05-19T06:11:42.945Z,27.20
2019-05-19T06:14:11.397Z,25.30
2019-05-19T06:16:39.861Z,25.57
2019-05-19T06:19:08.469Z,27.57
2019-05-19T06:21:36.951Z,25.13
2019-05-19T06:24:05.415Z,26.30
2019-05-19T06:26:33.947Z,24.73
2019-05-19T06:29:02.420Z,26.97
2019-05-19T06:31:30.892Z,26.37
2019-05-19T06:33:59.488Z,25.67
2019-05-19T06:36:28.017Z,27.50
2019-05-19T06:38:56.739Z,27.27
2019-05-19T06:41:25.251Z,27.47
2019-05-19T06:43:54.037Z,26.73
2019-05-19T06:46:22.519Z,26.10
2019-05-19T06:48:51.318Z,27.63
2019-05-19T06:51:19.786Z,26.00
2019-05-19T06:53:48.271Z,31.33
2019-05-19T06:56:16.738Z,29.43
2019-05-19T06:58:45.196Z,28.27
2019-05-19T07:01:13.631Z,25.73
2019-05-19T07:03:42.098Z,23.93
2019-05-19T07:06:10.553Z,23.30
2019-05-19T07:08:39.091Z,21.10
2019-05-19T07:11:07.521Z,20.70
2019-05-19T07:13:36.035Z,19.57
2019-05-19T07:16:04.858Z,20.13
2019-05-19T07:18:33.787Z,21.37
2019-05-19T07:21:02.600Z,18.90
2019-05-19T07:23:31.055Z,17.60
2019-05-19T07:25:59.976Z,21.80
2019-05-19T07:28:29.151Z,19.57
2019-05-19T07:30:57.590Z,16.97
2019-05-19T07:33:26.091Z,14.13
2019-05-19T07:35:54.904Z,15.73
2019-05-19T07:38:23.350Z,15.63
2019-05-19T07:40:51.836Z,14.87
2019-05-19T07:43:20.409Z,12.83
2019-05-19T07:45:49.641Z,13.70
2019-05-19T07:48:18.100Z,11.97
2019-05-19T07:50:46.538Z,11.83
2019-05-19T07:53:15.052Z,12.30
2019-05-19T07:55:43.710Z,11.37
2019-05-19T07:58:12.196Z,12.13
2019-05-19T08:00:40.689Z,12.37
2019-05-19T08:03:09.157Z,14.97
2019-05-19T08:05:37.625Z,12.77
2019-05-19T08:08:06.445Z,11.37
2019-05-19T08:10:35.023Z,11.53
2019-05-19T08:13:03.573Z,10.40
2019-05-19T08:15:32.298Z,12.50
2019-05-19T08:18:00.997Z,11.23
2019-05-19T08:20:29.697Z,11.20
2019-05-19T08:22:58.422Z,10.40
2019-05-19T08:25:26.927Z,11.90
2019-05-19T08:28:05.769Z,10.90
2019-05-19T08:30:25.596Z,11.17
2019-05-19T08:32:54.266Z,9.63
2019-05-19T08:35:22.771Z,11.43
2019-05-19T08:37:51.813Z,9.93
2019-05-19T08:40:21.287Z,8.73
2019-05-19T08:42:49.760Z,9.17
2019-05-19T08:45:18.260Z,9.50
2019-05-19T08:47:46.744Z,10.00
2019-05-19T08:50:15.458Z,9.73
2019-05-19T08:52:43.909Z,12.80
2019-05-19T08:55:12.437Z,11.23
2019-05-19T08:57:41.155Z,8.73
2019-05-19T09:00:10.586Z,10.00
2019-05-19T09:02:39.225Z,8.13
2019-05-19T09:05:09.721Z,8.73
2019-05-19T09:07:38.267Z,11.23
2019-05-19T09:10:08.531Z,10.23
2019-05-19T09:12:37.329Z,8.80
2019-05-19T09:15:07.309Z,9.03
2019-05-19T09:17:35.815Z,9.20
2019-05-19T09:20:05.200Z,8.80
2019-05-19T09:22:35.206Z,9.13
2019-05-19T09:25:07.827Z,10.53
2019-05-19T09:27:36.270Z,9.73
2019-05-19T09:30:08.230Z,10.73
2019-05-19T09:32:36.684Z,9.00
2019-05-19T09:35:09.366Z,9.90
2019-05-19T09:37:40.155Z,9.23
2019-05-19T09:40:09.621Z,9.87
2019-05-19T09:42:38.831Z,10.07
2019-05-19T09:45:08.541Z,10.80
2019-05-19T09:47:37.580Z,10.07
2019-05-19T09:50:07.008Z,8.87
2019-05-19T09:52:35.457Z,9.33
2019-05-19T09:55:05.091Z,9.10
2019-05-19T09:57:33.737Z,10.53
2019-05-19T10:00:02.925Z,10.37
2019-05-19T10:02:31.517Z,8.87
2019-05-19T10:04:59.985Z,9.20
2019-05-19T10:07:28.520Z,9.87
2019-05-19T10:09:59.545Z,9.33
2019-05-19T10:12:28.255Z,10.37
2019-05-19T10:14:56.891Z,8.73
2019-05-19T10:17:25.466Z,9.67
2019-05-19T10:19:54.017Z,10.33
2019-05-19T10:22:22.780Z,10.50
2019-05-19T10:25:10.396Z,10.33
2019-05-19T10:27:21.960Z,9.93
2019-05-19T10:29:50.800Z,9.27
2019-05-19T10:32:19.602Z,9.80
2019-05-19T10:34:48.337Z,9.37
2019-05-19T10:37:16.923Z,10.27
2019-05-19T10:39:45.392Z,11.40
2019-05-19T10:42:14.074Z,10.30
2019-05-19T10:44:42.583Z,9.83
2019-05-19T10:47:11.124Z,9.20
2019-05-19T10:49:42.773Z,10.77
2019-05-19T10:52:10.266Z,9.53
2019-05-19T10:54:38.845Z,9.37
2019-05-19T10:57:07.332Z,9.00
2019-05-19T10:59:35.931Z,8.50
2019-05-19T11:02:04.693Z,10.10
2019-05-19T11:04:33.296Z,10.03
2019-05-19T11:07:01.760Z,9.70
2019-05-19T11:09:30.205Z,10.37
2019-05-19T11:11:58.934Z,9.30
2019-05-19T11:14:27.396Z,10.57
2019-05-19T11:16:56.153Z,10.20
2019-05-19T11:19:24.608Z,12.17
2019-05-19T11:21:53.085Z,10.27
2019-05-19T11:24:21.778Z,11.47
2019-05-19T11:26:50.275Z,8.67
2019-05-19T11:29:18.720Z,12.47
2019-05-19T11:31:47.248Z,9.77
2019-05-19T11:34:15.738Z,7.70
2019-05-19T11:36:44.321Z,9.07
2019-05-19T11:39:12.762Z,8.90
2019-05-19T11:41:41.253Z,7.67
2019-05-19T11:44:09.769Z,8.20
2019-05-19T11:46:38.311Z,9.30
2019-05-19T11:49:06.729Z,8.90
2019-05-19T11:51:35.629Z,9.03
2019-05-19T11:54:04.164Z,8.73
2019-05-19T11:56:32.620Z,8.57
2019-05-19T11:59:01.269Z,8.63
2019-05-19T12:01:29.744Z,9.17
2019-05-19T12:03:58.190Z,8.53
2019-05-19T12:06:38.966Z,8.60
2019-05-19T12:08:56.839Z,9.30
2019-05-19T12:11:25.679Z,7.87
2019-05-19T12:13:54.128Z,14.80
2019-05-19T12:16:22.983Z,9.77
2019-05-19T12:18:51.462Z,8.93
2019-05-19T12:21:19.890Z,8.83
2019-05-19T12:23:48.367Z,10.00
2019-05-19T12:26:23.080Z,8.53
2019-05-19T12:28:47.051Z,8.47
2019-05-19T12:31:15.484Z,7.97
2019-05-19T12:33:51.441Z,7.23
2019-05-19T12:36:14.111Z,8.30
2019-05-19T12:38:42.564Z,6.83
2019-05-19T12:41:12.624Z,7.73
2019-05-19T12:43:41.104Z,7.87
2019-05-19T12:46:16.047Z,6.80
2019-05-19T12:48:39.799Z,8.47
2019-05-19T12:51:08.238Z,8.23
2019-05-19T12:53:36.790Z,8.87
2019-05-19T12:56:05.295Z,8.50
2019-05-19T12:58:35.395Z,7.83
2019-05-19T13:01:03.983Z,7.73
2019-05-19T13:03:32.442Z,8.60
2019-05-19T13:06:00.892Z,7.10
2019-05-19T13:08:29.348Z,8.70
2019-05-19T13:10:57.785Z,7.77
2019-05-19T13:13:26.547Z,7.73
2019-05-19T13:15:55.455Z,8.40
2019-05-19T13:18:24.012Z,7.87
2019-05-19T13:20:52.453Z,8.37
2019-05-19T13:23:20.966Z,6.90
2019-05-19T13:25:49.405Z,6.03
2019-05-19T13:28:18.003Z,8.27
2019-05-19T13:30:46.523Z,8.03
2019-05-19T13:33:14.956Z,8.30
2019-05-19T13:35:43.418Z,7.00
2019-05-19T13:38:11.993Z,8.93
2019-05-19T13:40:40.581Z,7.50
2019-05-19T13:43:09.024Z,9.03
2019-05-19T13:45:37.482Z,9.07
2019-05-19T13:48:05.912Z,9.53
2019-05-19T13:50:34.646Z,8.70
2019-05-19T13:53:03.155Z,7.90
2019-05-19T13:55:31.590Z,9.33
2019-05-19T13:58:00.056Z,8.80
2019-05-19T14:00:28.550Z,8.83
2019-05-19T14:02:57.000Z,9.10
2019-05-19T14:05:25.453Z,8.17
2019-05-19T14:07:54.000Z,7.87
2019-05-19T14:10:22.514Z,6.20
2019-05-19T14:12:51.228Z,8.20
2019-05-19T14:15:19.702Z,8.40
2019-05-19T14:17:48.149Z,8.70
2019-05-19T14:20:16.743Z,8.50
2019-05-19T14:22:45.177Z,9.47
2019-05-19T14:25:15.671Z,6.57
2019-05-19T14:27:44.101Z,9.10
2019-05-19T14:30:13.463Z,9.67
2019-05-19T14:32:41.988Z,8.50
2019-05-19T14:35:10.510Z,8.27
2019-05-19T14:37:39.038Z,8.60
2019-05-19T14:40:07.830Z,8.43
2019-05-19T14:42:46.992Z,7.23
2019-05-19T14:45:15.576Z,8.13
2019-05-19T14:47:44.137Z,7.90
2019-05-19T14:50:13.455Z,7.53
2019-05-19T14:52:41.925Z,7.80
2019-05-19T14:55:10.429Z,7.60
2019-05-19T14:57:44.861Z,8.33
2019-05-19T15:00:10.071Z,7.37
2019-05-19T15:02:38.647Z,7.83
2019-05-19T15:05:07.429Z,6.93
2019-05-19T15:07:35.896Z,7.33
2019-05-19T15:10:09.742Z,8.30
2019-05-19T15:12:38.267Z,8.60
2019-05-19T15:15:07.462Z,8.20
2019-05-19T15:17:35.965Z,8.43
2019-05-19T15:20:06.777Z,8.00
2019-05-19T15:22:35.863Z,8.00
2019-05-19T15:25:05.456Z,7.30
2019-05-19T15:27:34.287Z,8.67
2019-05-19T15:30:12.499Z,10.10
2019-05-19T15:32:33.873Z,10.77
2019-05-19T15:35:02.375Z,8.07
2019-05-19T15:37:30.925Z,9.00
2019-05-19T15:39:59.377Z,8.53
2019-05-19T15:42:27.907Z,8.17
2019-05-19T15:44:56.331Z,8.47
2019-05-19T15:47:24.837Z,8.90
2019-05-19T15:49:53.580Z,8.03
2019-05-19T15:52:22.153Z,7.87
2019-05-19T15:54:50.588Z,8.07
2019-05-19T15:57:19.057Z,9.43
2019-05-19T15:59:47.535Z,9.23
2019-05-19T16:02:16.065Z,8.67
2019-05-19T16:04:44.562Z,9.40
2019-05-19T16:07:13.019Z,8.10
2019-05-19T16:09:41.839Z,9.23
2019-05-19T16:12:10.312Z,9.00
2019-05-19T16:14:38.747Z,8.73
2019-05-19T16:17:07.183Z,8.80
2019-05-19T16:19:35.642Z,8.53
2019-05-19T16:22:04.468Z,8.87
2019-05-19T16:24:32.923Z,8.73
2019-05-19T16:27:01.435Z,7.60
2019-05-19T16:29:29.945Z,7.83
2019-05-19T16:31:58.385Z,9.23
2019-05-19T16:34:26.835Z,11.63
2019-05-19T16:36:55.267Z,12.03
2019-05-19T16:39:23.723Z,11.03
2019-05-19T16:41:52.410Z,11.77
2019-05-19T16:44:20.908Z,15.93
2019-05-19T16:46:49.349Z,13.70
2019-05-19T16:49:17.904Z,13.73
2019-05-19T16:51:46.350Z,14.23
2019-05-19T16:54:16.522Z,14.33
2019-05-19T16:56:45.142Z,10.53
2019-05-19T16:59:13.612Z,14.13
2019-05-19T17:01:42.068Z,13.50
2019-05-19T17:04:10.527Z,14.57
2019-05-19T17:06:39.246Z,14.03
2019-05-19T17:09:07.875Z,15.07
2019-05-19T17:11:36.330Z,14.73
2019-05-19T17:14:05.255Z,12.27
2019-05-19T17:16:33.694Z,12.83
2019-05-19T17:19:02.172Z,12.67
2019-05-19T17:21:30.622Z,12.63
2019-05-19T17:23:59.066Z,12.27
2019-05-19T17:26:27.525Z,12.43
2019-05-19T17:29:00.707Z,12.87
2019-05-19T17:31:26.429Z,13.00
2019-05-19T17:33:54.958Z,13.10
2019-05-19T17:36:23.737Z,11.63
2019-05-19T17:38:52.263Z,12.17
2019-05-19T17:41:20.700Z,10.00
2019-05-19T17:43:49.154Z,11.43
2019-05-19T17:46:17.602Z,11.47
2019-05-19T17:48:46.160Z,11.27
2019-05-19T17:51:14.895Z,11.03
2019-05-19T17:53:43.780Z,12.43
2019-05-19T17:56:13.599Z,11.00
2019-05-19T17:58:42.377Z,11.37
2019-05-19T18:01:10.868Z,10.80
2019-05-19T18:03:39.469Z,11.60
2019-05-19T18:06:07.922Z,10.00
2019-05-19T18:08:36.506Z,9.90
2019-05-19T18:11:05.100Z,10.10
2019-05-19T18:13:33.590Z,10.53
2019-05-19T18:16:02.175Z,11.03
2019-05-19T18:18:30.742Z,10.73
2019-05-19T18:20:59.271Z,9.77
2019-05-19T18:23:27.896Z,10.30
2019-05-19T18:25:56.386Z,9.63
2019-05-19T18:28:25.236Z,10.23
2019-05-19T18:30:54.031Z,12.93
2019-05-19T18:33:22.562Z,13.10
2019-05-19T18:35:51.107Z,10.17
2019-05-19T18:38:19.572Z,10.30
2019-05-19T18:40:48.030Z,10.27
2019-05-19T18:43:16.478Z,9.43
2019-05-19T18:45:44.955Z,10.50
2019-05-19T18:48:13.446Z,10.23
2019-05-19T18:50:41.975Z,11.37
2019-05-19T18:53:10.623Z,10.73
2019-05-19T18:55:39.116Z,10.67
2019-05-19T18:58:07.728Z,9.73
2019-05-19T19:00:38.336Z,9.17
2019-05-19T19:03:07.819Z,9.87
2019-05-19T19:05:36.546Z,10.43
2019-05-19T19:08:05.120Z,9.60
2019-05-19T19:10:33.615Z,9.03
2019-05-19T19:13:02.118Z,9.90
2019-05-19T19:15:30.680Z,11.27
2019-05-19T19:17:59.245Z,10.60
2019-05-19T19:20:27.674Z,10.13
2019-05-19T19:22:56.232Z,10.20
2019-05-19T19:25:24.771Z,11.80
2019-05-19T19:27:53.541Z,10.27
2019-05-19T19:30:22.243Z,10.63
2019-05-19T19:32:50.706Z,10.30
2019-05-19T19:35:19.431Z,12.10
2019-05-19T19:37:47.890Z,11.37
2019-05-19T19:40:19.398Z,22.00
2019-05-19T19:42:47.904Z,12.03
2019-05-19T19:45:16.493Z,13.37
2019-05-19T19:47:44.971Z,12.20
2019-05-19T19:50:13.812Z,11.57
2019-05-19T19:52:42.344Z,10.80
2019-05-19T19:55:10.948Z,11.73
2019-05-19T19:57:39.397Z,11.60
2019-05-19T20:00:17.861Z,12.13
2019-05-19T20:02:38.509Z,11.67
2019-05-19T20:05:07.133Z,13.37
2019-05-19T20:07:35.580Z,11.83
2019-05-19T20:10:06.382Z,13.07
2019-05-19T20:12:34.867Z,12.07
2019-05-19T20:15:03.829Z,12.23
2019-05-19T20:17:32.439Z,12.13
2019-05-19T20:20:00.907Z,12.33
2019-05-19T20:22:29.364Z,12.00
2019-05-19T20:24:57.918Z,11.27
2019-05-19T20:27:26.461Z,11.80
2019-05-19T20:29:55.037Z,11.70
2019-05-19T20:32:24.019Z,11.23
2019-05-19T20:34:52.487Z,10.70
2019-05-19T20:37:20.917Z,11.50
2019-05-19T20:39:49.379Z,12.10
2019-05-19T20:42:17.830Z,14.93
2019-05-19T20:44:46.303Z,32.47
2019-05-19T20:47:15.109Z,16.97
2019-05-19T20:49:43.576Z,12.43
2019-05-19T20:52:12.147Z,11.90
2019-05-19T20:54:40.688Z,11.47
2019-05-19T20:57:09.134Z,11.53
2019-05-19T20:59:37.604Z,12.07
2019-05-19T21:02:06.125Z,10.90
2019-05-19T21:04:34.654Z,11.03
2019-05-19T21:07:03.100Z,12.10
2019-05-19T21:09:31.558Z,12.33
2019-05-19T21:12:00.005Z,12.63
2019-05-19T21:14:28.491Z,12.43
2019-05-19T21:16:56.924Z,11.53
2019-05-19T21:19:25.392Z,10.77
2019-05-19T21:21:53.967Z,11.67
2019-05-19T21:24:22.570Z,11.67
2019-05-19T21:26:51.019Z,11.73
2019-05-19T21:29:19.479Z,11.13
2019-05-19T21:31:47.954Z,11.40
2019-05-19T21:34:16.386Z,11.03
2019-05-19T21:36:44.862Z,11.60
2019-05-19T21:39:13.294Z,11.60
2019-05-19T21:41:41.766Z,11.30
2019-05-19T21:44:10.222Z,12.00
2019-05-19T21:46:38.760Z,11.87
2019-05-19T21:49:07.185Z,12.70
2019-05-19T21:51:35.659Z,11.93
2019-05-19T21:54:04.475Z,12.70
2019-05-19T21:56:32.934Z,12.07
2019-05-19T21:59:01.387Z,11.53
2019-05-19T22:01:29.922Z,11.47
2019-05-19T22:03:58.374Z,12.37
2019-05-19T22:06:28.605Z,11.13
2019-05-19T22:08:57.108Z,11.97
2019-05-19T22:11:25.839Z,12.60
2019-05-19T22:13:54.292Z,12.90
2019-05-19T22:16:22.835Z,11.27
2019-05-19T22:18:51.275Z,13.07
2019-05-19T22:21:19.751Z,12.00
2019-05-19T22:23:48.198Z,10.90
2019-05-19T22:26:16.663Z,12.30
2019-05-19T22:28:45.119Z,12.07
2019-05-19T22:31:13.576Z,12.67
2019-05-19T22:33:42.039Z,12.27
2019-05-19T22:36:10.502Z,11.73
2019-05-19T22:38:38.955Z,11.73
2019-05-19T22:41:07.466Z,11.67
2019-05-19T22:43:35.918Z,12.87
2019-05-19T22:46:04.882Z,12.93
2019-05-19T22:48:33.322Z,12.33
2019-05-19T22:51:01.791Z,12.37
2019-05-19T22:53:32.618Z,11.43
2019-05-19T22:56:00.413Z,11.47
2019-05-19T22:58:28.946Z,13.13
2019-05-19T23:00:57.743Z,12.93
2019-05-19T23:03:26.769Z,12.83
2019-05-19T23:05:55.208Z,12.70
2019-05-19T23:08:23.658Z,11.90
2019-05-19T23:10:52.172Z,12.77
2019-05-19T23:13:20.807Z,12.30
2019-05-19T23:15:49.262Z,12.50
2019-05-19T23:18:17.881Z,13.07
2019-05-19T23:20:46.407Z,12.30
2019-05-19T23:23:14.858Z,12.37
2019-05-19T23:25:43.281Z,12.73
2019-05-19T23:28:11.746Z,12.30
2019-05-19T23:30:40.228Z,13.40
2019-05-19T23:33:08.680Z,12.67
2019-05-19T23:35:37.156Z,13.10
2019-05-19T23:38:05.669Z,12.87
2019-05-19T23:40:34.114Z,13.37
2019-05-19T23:43:03.032Z,13.10
2019-05-19T23:45:31.483Z,13.13
2019-05-19T23:47:59.969Z,13.13
2019-05-19T23:50:28.411Z,13.23
2019-05-19T23:52:56.870Z,12.90
2019-05-19T23:55:25.307Z,13.57
2019-05-19T23:57:53.889Z,12.93
